createdAt,value
2023-02-28T00:01:37.995Z,3.13
2023-02-28T00:04:06.748Z,2.83
2023-02-28T00:06:35.317Z,3.30
2023-02-28T00:09:04.282Z,2.90
2023-02-28T00:11:32.807Z,2.90
2023-02-28T00:14:02.920Z,2.60
2023-02-28T00:16:31.665Z,3.13
2023-02-28T00:19:00.321Z,3.00
2023-02-28T00:21:29.265Z,3.37
2023-02-28T00:23:58.066Z,3.00
2023-02-28T00:26:26.625Z,2.97
2023-02-28T00:28:55.392Z,2.73
2023-02-28T00:31:26.712Z,3.03
2023-02-28T00:33:55.457Z,2.60
2023-02-28T00:36:24.078Z,3.27
2023-02-28T00:38:52.714Z,3.47
2023-02-28T00:41:21.563Z,2.93
2023-02-28T00:43:50.192Z,2.77
2023-02-28T00:46:18.737Z,3.30
2023-02-28T00:48:48.658Z,2.87
2023-02-28T00:51:17.143Z,3.10
2023-02-28T00:53:45.693Z,3.63
2023-02-28T00:56:14.666Z,3.20
2023-02-28T00:58:43.338Z,4.07
2023-02-28T01:01:11.979Z,2.93
2023-02-28T01:03:40.594Z,2.97
2023-02-28T01:06:10.573Z,3.00
2023-02-28T01:08:40.657Z,2.90
2023-02-28T01:11:11.097Z,2.90
2023-02-28T01:13:42.253Z,3.00
2023-02-28T01:16:10.797Z,2.47
2023-02-28T01:18:39.743Z,3.00
2023-02-28T01:21:10.753Z,3.00
2023-02-28T01:23:40.552Z,2.87
2023-02-28T01:26:10.650Z,2.73
2023-02-28T01:28:42.385Z,3.13
2023-02-28T01:31:11.962Z,2.73
2023-02-28T01:33:41.448Z,3.33
2023-02-28T01:36:13.854Z,2.77
2023-02-28T01:38:42.983Z,2.73
2023-02-28T01:41:17.474Z,3.27
2023-02-28T01:44:07.876Z,3.23
2023-02-28T01:46:37.731Z,3.00
2023-02-28T01:49:10.911Z,3.47
2023-02-28T01:51:46.602Z,2.90
2023-02-28T01:54:18.748Z,2.40
2023-02-28T01:56:55.305Z,2.80
2023-02-28T01:59:28.971Z,2.63
2023-02-28T02:01:57.889Z,3.07
2023-02-28T02:04:34.452Z,3.00
2023-02-28T02:07:05.262Z,2.90
2023-02-28T02:09:33.851Z,3.20
2023-02-28T02:12:10.214Z,2.73
2023-02-28T02:14:53.029Z,3.13
2023-02-28T02:17:33.074Z,2.73
2023-02-28T02:20:35.904Z,3.17
2023-02-28T02:23:35.084Z,2.57
2023-02-28T02:26:34.132Z,2.47
2023-02-28T02:29:40.173Z,2.53
2023-02-28T02:32:30.036Z,2.60
2023-02-28T02:35:10.162Z,2.57
2023-02-28T02:37:44.706Z,2.30
2023-02-28T02:40:16.505Z,2.67
2023-02-28T02:42:53.072Z,2.60
2023-02-28T02:45:28.243Z,2.93
2023-02-28T02:48:00.710Z,2.80
2023-02-28T02:50:35.423Z,3.00
2023-02-28T02:53:06.002Z,2.37
2023-02-28T02:55:40.996Z,2.60
2023-02-28T02:58:15.192Z,3.30
2023-02-28T03:00:48.488Z,3.13
2023-02-28T03:03:21.717Z,2.60
2023-02-28T03:05:53.145Z,3.00
2023-02-28T03:08:21.841Z,2.67
2023-02-28T03:10:52.976Z,3.00
2023-02-28T03:13:54.009Z,2.70
2023-02-28T03:16:40.797Z,3.10
2023-02-28T03:19:25.739Z,2.63
2023-02-28T03:22:10.116Z,3.10
2023-02-28T03:24:47.679Z,3.10
2023-02-28T03:27:23.597Z,2.60
2023-02-28T03:29:58.432Z,3.60
2023-02-28T03:32:31.706Z,3.10
2023-02-28T03:35:06.976Z,2.50
2023-02-28T03:37:42.641Z,3.20
2023-02-28T03:40:15.998Z,3.30
2023-02-28T03:42:50.227Z,3.67
2023-02-28T03:45:23.464Z,3.13
2023-02-28T03:47:55.113Z,3.10
2023-02-28T03:50:26.667Z,3.53
2023-02-28T03:53:05.696Z,3.10
2023-02-28T03:55:40.542Z,3.27
2023-02-28T03:58:21.714Z,3.77
2023-02-28T04:00:54.668Z,3.53
2023-02-28T04:03:24.316Z,3.30
2023-02-28T04:05:55.240Z,3.80
2023-02-28T04:08:25.492Z,3.57
2023-02-28T04:10:58.331Z,3.43
2023-02-28T04:13:26.887Z,2.83
2023-02-28T04:15:55.507Z,3.60
2023-02-28T04:18:24.166Z,3.40
2023-02-28T04:20:52.708Z,3.30
2023-02-28T04:23:21.321Z,3.57
2023-02-28T04:25:52.142Z,3.30
2023-02-28T04:28:20.732Z,3.30
2023-02-28T04:30:49.271Z,2.93
2023-02-28T04:33:17.959Z,3.43
2023-02-28T04:35:46.554Z,3.47
2023-02-28T04:38:15.222Z,3.60
2023-02-28T04:40:43.715Z,3.00
2023-02-28T04:43:13.608Z,3.40
2023-02-28T04:45:42.289Z,3.03
2023-02-28T04:48:10.810Z,3.40
2023-02-28T04:50:39.332Z,3.80
2023-02-28T04:53:07.979Z,3.90
2023-02-28T04:55:36.609Z,3.73
2023-02-28T04:58:05.265Z,3.40
2023-02-28T05:00:35.259Z,3.70
2023-02-28T05:03:03.817Z,3.53
2023-02-28T05:05:32.460Z,3.63
2023-02-28T05:08:01.149Z,3.30
2023-02-28T05:10:29.867Z,3.47
2023-02-28T05:12:58.409Z,3.77
2023-02-28T05:15:26.965Z,3.63
2023-02-28T05:17:56.819Z,3.17
2023-02-28T05:20:25.424Z,3.07
2023-02-28T05:22:54.101Z,3.40
2023-02-28T05:25:23.741Z,3.60
2023-02-28T05:27:52.316Z,3.30
2023-02-28T05:30:21.001Z,3.97
2023-02-28T05:32:53.602Z,3.53
2023-02-28T05:35:23.766Z,3.13
2023-02-28T05:37:52.294Z,3.90
2023-02-28T05:40:21.606Z,4.00
2023-02-28T05:42:52.338Z,3.40
2023-02-28T05:45:20.934Z,3.10
2023-02-28T05:47:49.434Z,3.60
2023-02-28T05:50:18.267Z,3.13
2023-02-28T05:52:51.509Z,3.40
2023-02-28T05:55:20.145Z,3.20
2023-02-28T05:57:48.725Z,2.87
2023-02-28T06:00:18.776Z,3.33
2023-02-28T06:02:47.430Z,2.97
2023-02-28T06:05:18.594Z,3.87
2023-02-28T06:07:48.530Z,3.27
2023-02-28T06:10:17.379Z,3.87
2023-02-28T06:12:45.994Z,4.17
2023-02-28T06:15:16.174Z,3.60
2023-02-28T06:17:45.229Z,4.00
2023-02-28T06:20:14.761Z,3.47
2023-02-28T06:22:43.769Z,3.77
2023-02-28T06:25:13.715Z,3.73
2023-02-28T06:27:42.239Z,4.13
2023-02-28T06:30:11.968Z,3.73
2023-02-28T06:32:40.644Z,4.03
2023-02-28T06:35:10.004Z,3.90
2023-02-28T06:37:41.637Z,3.60
2023-02-28T06:40:14.749Z,3.80
2023-02-28T06:42:43.989Z,4.40
2023-02-28T06:45:13.416Z,4.20
2023-02-28T06:47:43.441Z,4.20
2023-02-28T06:50:13.891Z,4.13
2023-02-28T06:52:42.487Z,3.90
2023-02-28T06:55:12.866Z,3.90
2023-02-28T06:57:41.624Z,3.97
2023-02-28T07:00:12.178Z,4.17
2023-02-28T07:02:40.806Z,3.87
2023-02-28T07:05:10.183Z,3.90
2023-02-28T07:07:41.481Z,4.23
2023-02-28T07:10:11.813Z,4.30
2023-02-28T07:12:41.863Z,5.30
2023-02-28T07:15:11.713Z,4.77
2023-02-28T07:17:40.420Z,5.37
2023-02-28T07:20:10.143Z,5.27
2023-02-28T07:22:39.610Z,5.53
2023-02-28T07:25:08.937Z,4.70
2023-02-28T07:27:37.500Z,5.07
2023-02-28T07:30:09.297Z,4.70
2023-02-28T07:32:38.874Z,4.70
2023-02-28T07:35:08.553Z,4.50
2023-02-28T07:37:37.594Z,4.43
2023-02-28T07:40:09.351Z,4.13
2023-02-28T07:42:38.817Z,4.07
2023-02-28T07:45:12.559Z,4.20
2023-02-28T07:47:41.477Z,4.07
2023-02-28T07:50:12.192Z,3.57
2023-02-28T07:52:41.711Z,4.30
2023-02-28T07:55:11.709Z,4.13
2023-02-28T07:57:40.327Z,4.33
2023-02-28T08:00:13.659Z,4.07
2023-02-28T08:02:45.399Z,4.03
2023-02-28T08:05:14.024Z,3.93
2023-02-28T08:07:42.757Z,3.83
2023-02-28T08:10:12.331Z,3.63
2023-02-28T08:12:41.013Z,3.93
2023-02-28T08:15:11.994Z,4.00
2023-02-28T08:17:40.680Z,3.87
2023-02-28T08:20:11.311Z,3.90
2023-02-28T08:22:39.906Z,3.87
2023-02-28T08:25:09.425Z,3.90
2023-02-28T08:27:38.518Z,3.27
2023-02-28T08:30:08.522Z,2.90
2023-02-28T08:32:38.631Z,3.30
2023-02-28T08:35:10.055Z,3.10
2023-02-28T08:37:38.792Z,3.37
2023-02-28T08:40:09.140Z,3.37
2023-02-28T08:42:38.159Z,2.90
2023-02-28T08:45:07.898Z,3.13
2023-02-28T08:47:37.751Z,2.67
2023-02-28T08:50:07.582Z,2.80
2023-02-28T08:52:36.329Z,2.83
2023-02-28T08:55:05.123Z,3.07
2023-02-28T08:57:34.250Z,2.73
2023-02-28T09:00:05.328Z,2.70
2023-02-28T09:02:34.199Z,2.53
2023-02-28T09:05:04.714Z,3.03
2023-02-28T09:07:33.277Z,3.30
2023-02-28T09:10:01.901Z,3.03
2023-02-28T09:12:35.462Z,3.17
2023-02-28T09:15:04.546Z,3.00
2023-02-28T09:17:33.185Z,2.43
2023-02-28T09:20:01.795Z,2.50
2023-02-28T09:22:31.782Z,2.55
2023-02-28T09:25:00.280Z,2.80
2023-02-28T09:27:28.851Z,2.67
2023-02-28T09:29:57.465Z,2.28
2023-02-28T09:32:26.178Z,2.65
2023-02-28T09:34:54.960Z,2.30
2023-02-28T09:37:24.244Z,2.60
2023-02-28T09:39:54.121Z,2.60
2023-02-28T09:42:27.469Z,2.33
2023-02-28T09:44:57.503Z,2.53
2023-02-28T09:47:31.817Z,2.30
2023-02-28T09:50:19.737Z,2.55
2023-02-28T09:52:51.330Z,2.65
2023-02-28T09:55:32.749Z,2.20
2023-02-28T09:58:04.191Z,2.40
2023-02-28T10:00:37.194Z,2.22
2023-02-28T10:03:24.530Z,2.80
2023-02-28T10:05:58.400Z,2.38
2023-02-28T10:08:31.309Z,2.13
2023-02-28T10:11:05.332Z,2.55
2023-02-28T10:13:36.834Z,2.15
2023-02-28T10:16:10.289Z,2.10
2023-02-28T10:18:46.928Z,2.25
2023-02-28T10:21:23.085Z,2.03
2023-02-28T10:23:55.198Z,2.10
2023-02-28T10:26:28.803Z,2.15
2023-02-28T10:28:57.724Z,2.25
2023-02-28T10:31:26.559Z,2.40
2023-02-28T10:33:55.270Z,2.40
2023-02-28T10:36:24.563Z,2.28
2023-02-28T10:38:53.270Z,2.22
2023-02-28T10:41:35.625Z,2.20
2023-02-28T10:44:16.853Z,2.25
2023-02-28T10:46:45.780Z,2.28
2023-02-28T10:49:22.904Z,2.30
2023-02-28T10:51:54.744Z,2.20
2023-02-28T10:54:26.959Z,2.10
2023-02-28T10:57:18.716Z,2.20
2023-02-28T10:59:52.204Z,2.30
2023-02-28T11:02:36.833Z,1.92
2023-02-28T11:05:26.016Z,2.50
2023-02-28T11:07:56.130Z,2.25
2023-02-28T11:10:28.203Z,2.33
2023-02-28T11:13:00.971Z,2.17
2023-02-28T11:15:31.911Z,2.28
2023-02-28T11:18:03.108Z,2.22
2023-02-28T11:20:34.290Z,2.60
2023-02-28T11:23:05.272Z,2.50
2023-02-28T11:25:35.774Z,2.50
2023-02-28T11:28:07.700Z,2.20
2023-02-28T11:30:39.010Z,2.67
2023-02-28T11:33:24.588Z,2.63
2023-02-28T11:35:55.275Z,2.33
2023-02-28T11:38:24.014Z,2.75
2023-02-28T11:41:07.093Z,2.35
2023-02-28T11:43:53.246Z,2.50
2023-02-28T11:46:32.456Z,2.22
2023-02-28T11:49:08.547Z,2.33
2023-02-28T11:51:48.975Z,2.70
2023-02-28T11:54:33.862Z,2.45
2023-02-28T11:57:08.894Z,2.40
2023-02-28T11:59:55.629Z,2.45
2023-02-28T12:02:31.012Z,2.47
2023-02-28T12:05:13.735Z,2.42
2023-02-28T12:07:52.902Z,2.60
2023-02-28T12:10:26.084Z,2.70
2023-02-28T12:13:15.003Z,2.35
2023-02-28T12:16:19.592Z,2.40
2023-02-28T12:19:03.686Z,2.33
2023-02-28T12:21:41.618Z,2.40
2023-02-28T12:24:37.245Z,2.67
2023-02-28T12:27:09.597Z,2.40
2023-02-28T12:29:46.863Z,2.42
2023-02-28T12:32:21.009Z,2.63
2023-02-28T12:34:53.265Z,2.50
2023-02-28T12:37:27.407Z,2.40
2023-02-28T12:40:06.474Z,2.80
2023-02-28T12:42:41.870Z,2.30
2023-02-28T12:45:15.433Z,2.63
2023-02-28T12:47:48.908Z,2.60
2023-02-28T12:50:18.678Z,2.40
2023-02-28T12:52:59.999Z,2.50
2023-02-28T12:55:37.507Z,2.90
2023-02-28T12:58:15.891Z,2.28
2023-02-28T13:00:58.204Z,2.72
2023-02-28T13:03:54.884Z,2.63
2023-02-28T13:06:41.123Z,2.75
2023-02-28T13:09:15.675Z,2.42
2023-02-28T13:11:46.904Z,2.72
2023-02-28T13:14:28.484Z,2.08
2023-02-28T13:17:00.545Z,2.55
2023-02-28T13:19:33.000Z,2.53
2023-02-28T13:22:02.743Z,2.63
2023-02-28T13:24:48.177Z,2.67
2023-02-28T13:27:40.228Z,2.70
2023-02-28T13:30:46.221Z,2.88
2023-02-28T13:33:29.064Z,2.50
2023-02-28T13:36:25.057Z,2.78
2023-02-28T13:38:56.327Z,2.38
2023-02-28T13:41:47.344Z,2.65
2023-02-28T13:44:18.735Z,2.95
2023-02-28T13:47:25.580Z,2.70
2023-02-28T13:49:55.105Z,2.72
2023-02-28T13:52:27.017Z,2.45
2023-02-28T13:55:17.110Z,2.67
2023-02-28T13:57:56.662Z,2.75
2023-02-28T14:00:37.495Z,2.42
2023-02-28T14:03:25.142Z,2.53
2023-02-28T14:06:26.137Z,3.05
2023-02-28T14:09:00.691Z,2.70
2023-02-28T14:11:35.105Z,2.83
2023-02-28T14:14:05.498Z,2.83
2023-02-28T14:16:43.338Z,3.25
2023-02-28T14:19:16.224Z,2.92
2023-02-28T14:22:02.675Z,3.15
2023-02-28T14:24:52.591Z,2.83
2023-02-28T14:27:35.776Z,3.05
2023-02-28T14:30:38.949Z,3.40
2023-02-28T14:33:23.014Z,2.90
2023-02-28T14:36:09.261Z,2.90
2023-02-28T14:38:45.172Z,3.33
2023-02-28T14:41:23.050Z,3.40
2023-02-28T14:43:54.959Z,3.38
2023-02-28T14:46:25.551Z,3.47
2023-02-28T14:48:54.349Z,3.08
2023-02-28T14:51:25.252Z,3.60
2023-02-28T14:54:00.012Z,3.40
2023-02-28T14:56:35.194Z,3.20
2023-02-28T14:59:03.931Z,3.60
2023-02-28T15:01:34.491Z,3.58
2023-02-28T15:04:06.187Z,3.83
2023-02-28T15:06:35.247Z,3.33
2023-02-28T15:09:12.164Z,3.40
2023-02-28T15:11:42.374Z,3.00
2023-02-28T15:14:19.016Z,3.42
2023-02-28T15:16:50.915Z,3.15
2023-02-28T15:19:25.188Z,3.33
2023-02-28T15:21:59.797Z,3.17
2023-02-28T15:24:37.278Z,3.42
2023-02-28T15:27:11.754Z,3.20
2023-02-28T15:29:46.997Z,3.78
2023-02-28T15:32:29.451Z,3.47
2023-02-28T15:35:00.138Z,3.67
2023-02-28T15:37:31.982Z,3.60
2023-02-28T15:40:09.851Z,3.80
2023-02-28T15:42:40.131Z,3.45
2023-02-28T15:45:30.068Z,3.70
2023-02-28T15:48:02.589Z,4.00
2023-02-28T15:50:37.308Z,3.95
2023-02-28T15:53:06.053Z,3.67
2023-02-28T15:55:34.579Z,4.13
2023-02-28T15:58:06.169Z,3.90
2023-02-28T16:00:34.824Z,3.95
2023-02-28T16:03:03.658Z,3.75
2023-02-28T16:05:33.343Z,3.65
2023-02-28T16:08:16.519Z,4.00
2023-02-28T16:10:45.835Z,3.67
2023-02-28T16:13:16.906Z,3.83
2023-02-28T16:15:46.257Z,3.75
2023-02-28T16:18:15.338Z,4.32
2023-02-28T16:20:45.658Z,3.92
2023-02-28T16:23:14.255Z,3.83
2023-02-28T16:25:45.617Z,4.00
2023-02-28T16:28:21.452Z,3.70
2023-02-28T16:30:50.126Z,3.65
2023-02-28T16:33:18.809Z,3.65
2023-02-28T16:35:47.436Z,3.72
2023-02-28T16:38:16.030Z,4.10
2023-02-28T16:40:44.867Z,3.42
2023-02-28T16:43:19.997Z,3.60
2023-02-28T16:45:48.714Z,3.80
2023-02-28T16:48:18.285Z,3.50
2023-02-28T16:50:47.004Z,3.65
2023-02-28T16:53:16.002Z,3.60
2023-02-28T16:55:44.749Z,3.63
2023-02-28T16:58:18.233Z,4.15
2023-02-28T17:00:46.845Z,3.40
2023-02-28T17:03:32.657Z,3.33
2023-02-28T17:06:02.183Z,3.72
2023-02-28T17:08:32.847Z,3.72
2023-02-28T17:11:02.639Z,3.97
2023-02-28T17:13:35.393Z,3.85
2023-02-28T17:16:04.487Z,3.38
2023-02-28T17:18:34.855Z,3.70
2023-02-28T17:21:03.485Z,3.65
2023-02-28T17:23:32.080Z,3.80
2023-02-28T17:26:00.706Z,3.80
2023-02-28T17:28:29.338Z,3.70
2023-02-28T17:30:59.270Z,3.47
2023-02-28T17:33:27.803Z,3.90
2023-02-28T17:35:56.351Z,3.67
2023-02-28T17:38:24.988Z,3.30
2023-02-28T17:40:58.088Z,3.38
2023-02-28T17:43:27.338Z,3.83
2023-02-28T17:45:56.517Z,4.22
2023-02-28T17:48:26.676Z,3.88
2023-02-28T17:50:55.408Z,4.10
2023-02-28T17:53:24.426Z,4.05
2023-02-28T17:55:53.068Z,4.10
2023-02-28T17:58:21.648Z,4.05
2023-02-28T18:00:54.687Z,4.13
2023-02-28T18:03:24.707Z,4.30
2023-02-28T18:05:57.819Z,4.35
2023-02-28T18:08:26.862Z,4.55
2023-02-28T18:10:55.700Z,3.70
2023-02-28T18:13:24.287Z,4.32
2023-02-28T18:15:52.899Z,4.30
2023-02-28T18:18:21.616Z,4.80
2023-02-28T18:20:50.826Z,4.65
2023-02-28T18:23:21.617Z,4.82
2023-02-28T18:25:50.247Z,4.93
2023-02-28T18:28:18.814Z,5.75
2023-02-28T18:30:47.476Z,5.78
2023-02-28T18:33:16.154Z,5.40
2023-02-28T18:35:44.819Z,6.00
2023-02-28T18:38:16.055Z,6.43
2023-02-28T18:40:53.903Z,6.95
2023-02-28T18:43:22.624Z,7.07
2023-02-28T18:45:51.256Z,8.82
2023-02-28T18:48:20.075Z,7.82
2023-02-28T18:50:48.717Z,8.48
2023-02-28T18:53:17.782Z,8.02
2023-02-28T18:55:47.875Z,10.48
2023-02-28T18:58:16.593Z,10.80
2023-02-28T19:00:45.246Z,11.48
2023-02-28T19:03:14.455Z,11.00
2023-02-28T19:05:42.993Z,11.50
2023-02-28T19:08:11.526Z,11.80
2023-02-28T19:10:41.077Z,13.05
2023-02-28T19:13:10.991Z,11.45
2023-02-28T19:15:39.640Z,10.95
2023-02-28T19:18:08.255Z,10.57
2023-02-28T19:20:37.472Z,10.25
2023-02-28T19:23:06.227Z,10.10
2023-02-28T19:25:34.817Z,9.82
2023-02-28T19:28:03.471Z,9.25
2023-02-28T19:30:33.341Z,8.73
2023-02-28T19:33:01.929Z,9.25
2023-02-28T19:35:30.627Z,10.02
2023-02-28T19:37:59.933Z,19.33
2023-02-28T19:40:28.576Z,18.10
2023-02-28T19:42:57.088Z,17.63
2023-02-28T19:45:25.838Z,16.33
2023-02-28T19:47:55.780Z,17.88
2023-02-28T19:50:24.416Z,17.88
2023-02-28T19:52:52.980Z,16.67
2023-02-28T19:55:21.568Z,14.85
2023-02-28T19:57:51.375Z,15.07
2023-02-28T20:00:20.593Z,13.85
2023-02-28T20:02:49.189Z,16.85
2023-02-28T20:05:19.514Z,16.65
2023-02-28T20:07:48.621Z,15.90
2023-02-28T20:10:17.317Z,14.38
2023-02-28T20:12:46.098Z,13.90
2023-02-28T20:15:14.642Z,13.18
2023-02-28T20:17:43.190Z,13.15
2023-02-28T20:20:12.727Z,12.10
2023-02-28T20:22:42.637Z,12.18
2023-02-28T20:25:12.075Z,12.60
2023-02-28T20:27:40.665Z,11.73
2023-02-28T20:30:10.924Z,11.35
2023-02-28T20:32:39.839Z,11.63
2023-02-28T20:35:11.596Z,11.53
2023-02-28T20:37:40.568Z,10.10
2023-02-28T20:40:12.076Z,11.03
2023-02-28T20:42:40.590Z,10.17
2023-02-28T20:45:10.490Z,10.00
2023-02-28T20:47:39.078Z,10.23
2023-02-28T20:50:09.172Z,10.02
2023-02-28T20:52:37.897Z,9.40
2023-02-28T20:55:07.902Z,10.87
2023-02-28T20:57:37.964Z,10.10
2023-02-28T21:00:09.455Z,8.40
2023-02-28T21:02:38.459Z,8.20
2023-02-28T21:05:07.489Z,7.93
2023-02-28T21:07:36.132Z,7.53
2023-02-28T21:10:04.896Z,8.00
2023-02-28T21:12:33.520Z,9.10
2023-02-28T21:15:03.422Z,8.97
2023-02-28T21:17:32.084Z,9.00
2023-02-28T21:20:00.638Z,8.27
2023-02-28T21:22:29.178Z,9.07
2023-02-28T21:24:57.721Z,9.37
2023-02-28T21:27:26.180Z,8.87
2023-02-28T21:29:54.682Z,8.37
2023-02-28T21:32:24.688Z,8.03
2023-02-28T21:34:55.085Z,8.30
2023-02-28T21:37:23.741Z,9.07
2023-02-28T21:39:52.503Z,8.97
2023-02-28T21:42:21.064Z,9.73
2023-02-28T21:44:50.285Z,10.17
2023-02-28T21:47:18.932Z,10.43
2023-02-28T21:49:48.841Z,10.57
2023-02-28T21:52:21.762Z,12.40
2023-02-28T21:54:50.321Z,13.03
2023-02-28T21:57:18.796Z,11.60
2023-02-28T21:59:47.447Z,12.23
2023-02-28T22:02:16.088Z,12.70
2023-02-28T22:04:44.664Z,12.47
2023-02-28T22:07:14.496Z,11.27
2023-02-28T22:09:43.527Z,11.07
2023-02-28T22:12:12.083Z,13.37
2023-02-28T22:14:41.695Z,12.43
2023-02-28T22:17:10.260Z,13.13
2023-02-28T22:19:38.780Z,11.57
2023-02-28T22:22:07.306Z,11.93
2023-02-28T22:24:37.157Z,11.30
2023-02-28T22:27:06.801Z,10.10
2023-02-28T22:29:35.320Z,10.10
2023-02-28T22:32:03.904Z,9.70
2023-02-28T22:34:32.499Z,9.97
2023-02-28T22:37:01.002Z,8.57
2023-02-28T22:39:29.591Z,8.97
2023-02-28T22:41:59.453Z,8.73
2023-02-28T22:44:29.489Z,8.63
2023-02-28T22:46:58.246Z,8.87
2023-02-28T22:49:26.867Z,9.00
2023-02-28T22:51:55.462Z,9.53
2023-02-28T22:54:24.165Z,10.30
2023-02-28T22:56:52.740Z,10.70
2023-02-28T22:59:43.226Z,10.03
2023-02-28T23:02:13.473Z,10.10
2023-02-28T23:04:47.380Z,10.50
2023-02-28T23:07:17.140Z,10.63
2023-02-28T23:09:46.153Z,10.80
2023-02-28T23:12:18.048Z,9.80
2023-02-28T23:14:49.427Z,9.67
2023-02-28T23:17:18.787Z,10.63
2023-02-28T23:19:47.746Z,9.73
2023-02-28T23:22:17.808Z,9.43
2023-02-28T23:24:48.128Z,11.17
2023-02-28T23:27:18.929Z,10.33
2023-02-28T23:29:54.124Z,9.37
2023-02-28T23:32:27.859Z,8.83
2023-02-28T23:35:34.181Z,9.13
2023-02-28T23:38:03.111Z,9.47
2023-02-28T23:40:32.356Z,9.20
2023-02-28T23:43:02.721Z,9.00
2023-02-28T23:45:33.241Z,8.17
2023-02-28T23:48:03.537Z,8.70
2023-02-28T23:50:32.724Z,8.13
2023-02-28T23:53:01.896Z,8.63
2023-02-28T23:55:30.793Z,9.20
2023-02-28T23:57:59.752Z,8.80
